Time;durP1;ratioP1;P1;durP2;ratioP2;P2;SDS_P1;SDS_P2;PMS_P1;PMS_P2;Temp;Humidity;BMP_temperature;BMP_pressure;BME280_temperature;BME280_humidity;BME280_pressure;Samples;Min_cycle;Max_cycle;Signal;HPM_P1;HPM_P2
2022/09/22 05:34:05;;;;;;;18.20;2.97;;;15.20;67.70;;;;;;4819561;29;21074;-77
2022/09/22 05:36:31;;;;;;;17.20;2.80;;;15.30;67.90;;;;;;4826669;29;20043;-81
2022/09/22 05:38:57;;;;;;;12.52;2.13;;;15.30;68.00;;;;;;4826515;29;20548;-78
2022/09/22 05:41:23;;;;;;;12.20;1.92;;;15.30;67.90;;;;;;4828720;29;20049;-80
2022/09/22 05:43:49;;;;;;;10.75;2.28;;;15.20;67.80;;;;;;4842835;29;20106;-75
2022/09/22 05:46:15;;;;;;;9.68;1.77;;;15.30;68.20;;;;;;4844424;29;20038;-72
2022/09/22 05:48:40;;;;;;;12.55;2.33;;;15.20;68.30;;;;;;4843990;29;20099;-80
2022/09/22 05:51:06;;;;;;;12.88;2.50;;;15.30;68.40;;;;;;4834686;29;20045;-78
2022/09/22 05:53:32;;;;;;;13.32;1.90;;;15.30;68.50;;;;;;4825764;29;20042;-80
2022/09/22 05:55:59;;;;;;;9.23;1.90;;;15.30;68.70;;;;;;4827588;29;20106;-79
2022/09/22 06:02:10;;;;;;;6.85;2.22;;;15.30;68.40;;;;;;4756466;30;20130;-78
2022/09/22 06:04:35;;;;;;;6.95;2.80;;;15.40;68.40;;;;;;4818620;29;20101;-77
2022/09/22 06:07:22;;;;;;;7.57;2.17;;;15.40;66.20;;;;;;4812873;29;20078;-77
2022/09/22 06:09:51;;;;;;;6.53;2.15;;;15.40;65.30;;;;;;4777074;29;20104;-78
2022/09/22 06:12:23;;;;;;;16.67;3.35;;;15.40;65.00;;;;;;4805583;29;20054;-77
2022/09/22 06:14:50;;;;;;;10.65;2.55;;;15.30;64.70;;;;;;4807937;29;20049;-75
2022/09/22 06:17:16;;;;;;;13.10;3.20;;;15.30;64.70;;;;;;4808014;29;20047;-78
2022/09/22 06:19:42;;;;;;;13.77;2.80;;;15.20;65.00;;;;;;4803299;29;20038;-78
2022/09/22 06:22:09;;;;;;;8.70;2.40;;;15.20;65.40;;;;;;4794957;29;20357;-81
2022/09/22 06:24:35;;;;;;;7.65;2.20;;;15.20;65.70;;;;;;4810893;29;20478;-79
2022/09/22 06:27:01;;;;;;;11.32;2.50;;;15.20;65.90;;;;;;4795580;29;20096;-82
2022/09/22 06:29:27;;;;;;;6.20;1.50;;;15.20;66.00;;;;;;4795689;29;20084;-78
2022/09/22 06:31:55;;;;;;;8.48;1.92;;;15.30;66.20;;;;;;4810517;29;20038;-79
2022/09/22 06:34:22;;;;;;;5.60;2.25;;;15.40;66.10;;;;;;4803704;29;20053;-77
2022/09/22 06:36:49;;;;;;;6.70;2.88;;;15.40;66.10;;;;;;4815340;29;20062;-78
2022/09/22 06:39:14;;;;;;;7.13;3.15;;;15.50;64.40;;;;;;4826281;29;20108;-77
2022/09/22 06:41:40;;;;;;;4.80;2.60;;;15.40;63.50;;;;;;4817938;29;20050;-78
2022/09/22 06:44:06;;;;;;;6.43;3.03;;;15.30;63.30;;;;;;4827205;29;20050;-78
2022/09/22 06:46:33;;;;;;;5.03;2.22;;;15.20;63.70;;;;;;4843874;29;20054;-77
2022/09/22 06:49:02;;;;;;;5.35;2.33;;;15.00;64.00;;;;;;4808867;29;20050;-77
2022/09/22 06:51:31;;;;;;;4.65;2.20;;;14.90;64.30;;;;;;4827138;29;20038;-78
2022/09/22 06:53:58;;;;;;;6.20;2.35;;;14.90;64.70;;;;;;4826052;29;20057;-78
2022/09/22 06:56:26;;;;;;;5.55;2.30;;;14.90;64.70;;;;;;4826859;29;20082;-76
2022/09/22 06:58:54;;;;;;;6.78;2.67;;;14.90;64.40;;;;;;4821801;29;20115;-78
2022/09/22 07:01:22;;;;;;;6.03;2.30;;;14.80;64.90;;;;;;4841035;29;20089;-78
2022/09/22 07:03:49;;;;;;;7.00;1.77;;;14.80;65.40;;;;;;4819107;29;20039;-77
2022/09/22 07:06:17;;;;;;;4.47;2.47;;;14.80;65.60;;;;;;4816238;29;20476;-76
2022/09/22 07:08:46;;;;;;;8.07;2.38;;;14.90;65.80;;;;;;4825736;29;20125;-80
2022/09/22 07:11:13;;;;;;;10.35;2.05;;;15.00;65.80;;;;;;4806103;29;20091;-72
2022/09/22 07:13:41;;;;;;;5.85;2.20;;;15.00;66.00;;;;;;4829600;29;20137;-75
2022/09/22 07:16:12;;;;;;;3.78;1.98;;;15.10;65.90;;;;;;4844251;29;20123;-74
2022/09/22 07:18:40;;;;;;;7.75;2.33;;;15.10;65.90;;;;;;4846906;29;20061;-72
2022/09/22 07:21:08;;;;;;;4.53;1.75;;;15.20;65.80;;;;;;4847467;29;20056;-71
2022/09/22 07:23:35;;;;;;;4.50;1.83;;;15.20;65.60;;;;;;4831423;29;20457;-71
2022/09/22 07:26:06;;;;;;;7.50;1.92;;;15.20;65.20;;;;;;4843046;29;20069;-74
2022/09/22 07:28:34;;;;;;;3.75;1.50;;;15.20;65.00;;;;;;4828830;29;20054;-73
2022/09/22 07:31:04;;;;;;;3.83;1.88;;;15.30;65.10;;;;;;4829232;29;20145;-73
2022/09/22 07:33:35;;;;;;;6.22;1.23;;;15.30;65.20;;;;;;4842759;29;20062;-74
2022/09/22 07:36:14;;;;;;;3.40;1.70;;;15.30;65.30;;;;;;4828841;29;20192;-75
2022/09/22 07:38:45;;;;;;;4.55;1.55;;;15.40;65.10;;;;;;4828521;29;20047;-72
2022/09/22 07:41:14;;;;;;;3.30;1.33;;;15.40;64.80;;;;;;4828422;29;20042;-72
2022/09/22 07:43:40;;;;;;;3.65;1.35;;;15.40;64.70;;;;;;4843475;29;20054;-71
2022/09/22 07:46:07;;;;;;;4.90;1.67;;;15.40;64.80;;;;;;4844364;29;20061;-72
2022/09/22 07:48:37;;;;;;;4.45;1.70;;;15.50;65.10;;;;;;4836902;29;20137;-80
2022/09/22 07:51:07;;;;;;;3.63;1.10;;;15.50;65.30;;;;;;4834788;29;20054;-73
2022/09/22 07:53:34;;;;;;;2.30;0.90;;;15.50;65.40;;;;;;4812499;29;20058;-72
2022/09/22 07:56:12;;;;;;;4.78;1.05;;;15.60;65.50;;;;;;4829488;29;20097;-72
2022/09/22 07:58:48;;;;;;;4.82;1.20;;;15.60;65.70;;;;;;4814018;29;20453;-72
2022/09/22 08:01:15;;;;;;;4.78;1.00;;;15.70;65.80;;;;;;4829611;29;20050;-72
2022/09/22 08:03:45;;;;;;;2.88;0.95;;;15.70;65.90;;;;;;4827980;29;20060;-72
2022/09/22 08:06:12;;;;;;;4.60;0.80;;;15.70;65.90;;;;;;4828937;29;20095;-72
2022/09/22 08:08:42;;;;;;;3.75;0.90;;;15.80;66.00;;;;;;4829311;29;20050;-72
2022/09/22 08:11:13;;;;;;;4.07;0.80;;;15.80;66.00;;;;;;4828307;29;20057;-73
2022/09/22 08:13:49;;;;;;;3.65;0.70;;;15.80;66.00;;;;;;4810833;29;20054;-76
2022/09/22 08:16:17;;;;;;;4.65;1.65;;;15.80;66.00;;;;;;4810044;29;20063;-74
2022/09/22 08:18:43;;;;;;;4.55;1.38;;;15.80;65.90;;;;;;4830915;29;20469;-73
2022/09/22 08:21:09;;;;;;;2.67;1.35;;;15.90;65.80;;;;;;4828074;29;20046;-74
2022/09/22 08:23:36;;;;;;;3.35;1.42;;;15.90;65.50;;;;;;4832856;29;20113;-72
2022/09/22 08:26:07;;;;;;;4.10;1.23;;;16.00;65.10;;;;;;4829904;29;20046;-77
2022/09/22 08:28:33;;;;;;;4.35;1.30;;;15.90;64.50;;;;;;4811850;29;20065;-75
2022/09/22 08:31:00;;;;;;;5.05;1.65;;;16.00;65.10;;;;;;4827515;29;20042;-71
2022/09/22 08:33:27;;;;;;;2.67;1.15;;;16.00;65.30;;;;;;4843130;29;20390;-74
2022/09/22 08:36:02;;;;;;;6.80;1.63;;;16.00;66.00;;;;;;4846212;29;20115;-70
2022/09/22 08:38:29;;;;;;;6.05;1.27;;;16.00;66.70;;;;;;4846731;29;20362;-72
2022/09/22 08:41:13;;;;;;;7.40;1.60;;;16.10;67.10;;;;;;4845838;29;20049;-74
2022/09/22 08:43:51;;;;;;;5.35;1.10;;;16.10;67.30;;;;;;4827777;29;20362;-72
2022/09/22 08:46:17;;;;;;;6.05;1.17;;;16.10;67.50;;;;;;4827507;29;20054;-72
2022/09/22 08:51:59;;;;;;;4.15;1.30;;;16.20;67.50;;;;;;4810942;29;20054;-72
2022/09/22 08:54:30;;;;;;;6.32;1.48;;;16.20;67.70;;;;;;4829465;29;20101;-73
2022/09/22 08:57:40;;;;;;;5.10;1.20;;;16.30;67.60;;;;;;4845858;29;20058;-73
2022/09/22 09:00:12;;;;;;;5.30;2.00;;;16.30;67.50;;;;;;4834303;29;20093;-79
2022/09/22 09:02:40;;;;;;;4.72;1.60;;;16.30;66.70;;;;;;4835483;29;20131;-77
2022/09/22 09:05:44;;;;;;;5.88;1.95;;;16.30;66.50;;;;;;4810926;29;20545;-76
2022/09/22 09:08:26;;;;;;;5.00;2.08;;;16.40;66.40;;;;;;4826806;29;20155;-76
2022/09/22 09:10:58;;;;;;;8.38;1.90;;;16.40;66.00;;;;;;4842225;29;20374;-74
2022/09/22 09:13:53;;;;;;;3.53;1.73;;;16.40;65.90;;;;;;4829096;29;20091;-76
2022/09/22 09:16:43;;;;;;;3.45;1.40;;;16.50;65.90;;;;;;4841526;29;20468;-76
2022/09/22 09:19:19;;;;;;;7.78;2.28;;;16.50;66.00;;;;;;4845162;29;20494;-76
2022/09/22 09:21:54;;;;;;;8.93;2.40;;;16.50;65.10;;;;;;4829305;29;20089;-76
2022/09/22 09:24:35;;;;;;;7.70;2.10;;;16.50;64.70;;;;;;4829273;29;20366;-79
2022/09/22 09:27:08;;;;;;;5.40;1.58;;;16.50;64.50;;;;;;4843596;29;20399;-78
2022/09/22 09:29:52;;;;;;;6.00;1.55;;;16.50;64.30;;;;;;4844784;29;20343;-80
2022/09/22 09:32:26;;;;;;;6.45;2.03;;;16.50;64.40;;;;;;4843205;29;20402;-80
2022/09/22 09:34:53;;;;;;;4.35;1.40;;;16.50;64.30;;;;;;4829005;29;20062;-79
2022/09/22 09:37:19;;;;;;;3.90;1.88;;;16.50;63.70;;;;;;4838012;29;20618;-74
2022/09/22 09:39:46;;;;;;;3.95;1.45;;;16.60;64.60;;;;;;4827180;29;20353;-74
2022/09/22 09:42:18;;;;;;;4.07;1.65;;;16.60;64.80;;;;;;4826943;29;20092;-75
2022/09/22 09:44:46;;;;;;;4.43;1.75;;;16.60;65.00;;;;;;4826726;29;20086;-76
2022/09/22 09:47:26;;;;;;;3.17;1.30;;;16.60;65.10;;;;;;4832045;29;20092;-71
2022/09/22 09:49:53;;;;;;;5.47;1.83;;;16.60;65.00;;;;;;4843791;29;20133;-76
2022/09/22 09:52:19;;;;;;;6.38;2.10;;;16.60;65.00;;;;;;4844904;29;20442;-79
2022/09/22 09:54:48;;;;;;;5.60;1.73;;;16.60;64.50;;;;;;4845028;29;20038;-80
2022/09/22 09:57:18;;;;;;;4.65;1.67;;;16.70;64.50;;;;;;4823225;29;20051;-80
2022/09/22 10:03:01;;;;;;;5.55;1.30;;;16.70;64.70;;;;;;4840477;29;20053;-75
2022/09/22 10:05:28;;;;;;;5.97;1.95;;;16.60;65.10;;;;;;4844504;29;20057;-74
2022/09/22 10:08:14;;;;;;;4.70;1.25;;;16.70;65.30;;;;;;4828316;29;20053;-74
2022/09/22 10:10:40;;;;;;;5.07;2.15;;;16.70;65.70;;;;;;4845303;29;20058;-75
2022/09/22 10:13:06;;;;;;;6.53;1.60;;;16.70;65.00;;;;;;4796557;29;20058;-75
2022/09/22 10:15:34;;;;;;;2.78;1.05;;;16.70;65.30;;;;;;4826181;29;20093;-74
2022/09/22 10:18:01;;;;;;;3.90;1.35;;;16.70;65.50;;;;;;4826541;29;20454;-73
2022/09/22 10:20:30;;;;;;;3.75;1.35;;;16.70;66.20;;;;;;4826399;29;20050;-75
2022/09/22 10:23:20;;;;;;;5.07;1.70;;;16.70;65.70;;;;;;4840040;29;20124;-73
2022/09/22 10:25:47;;;;;;;2.90;1.15;;;16.70;66.00;;;;;;4843324;29;20061;-75
2022/09/22 10:28:19;;;;;;;4.25;1.40;;;16.70;65.70;;;;;;4844329;29;20046;-76
2022/09/22 10:31:02;;;;;;;2.80;1.20;;;16.70;65.60;;;;;;4844313;29;20050;-75
2022/09/22 10:33:28;;;;;;;3.67;1.80;;;16.70;65.70;;;;;;4826355;29;20077;-77
2022/09/22 10:36:10;;;;;;;3.05;1.42;;;16.70;65.40;;;;;;4826051;29;20058;-75
2022/09/22 10:38:41;;;;;;;3.15;1.23;;;16.80;65.10;;;;;;4826192;29;20458;-75
2022/09/22 10:41:18;;;;;;;6.28;1.95;;;16.80;65.10;;;;;;4809503;29;20050;-77
2022/09/22 10:43:43;;;;;;;6.57;2.13;;;16.80;64.70;;;;;;4825684;29;20050;-80
2022/09/22 10:46:15;;;;;;;4.43;2.15;;;16.80;64.10;;;;;;4828730;29;20137;-76
2022/09/22 10:48:50;;;;;;;5.68;1.73;;;16.80;63.80;;;;;;4829471;29;20336;-77
2022/09/22 10:51:35;;;;;;;3.47;1.42;;;16.80;64.10;;;;;;4829610;29;20058;-76
2022/09/22 10:54:10;;;;;;;3.35;1.70;;;16.80;64.60;;;;;;4811649;29;20366;-76
2022/09/22 10:56:36;;;;;;;3.38;1.70;;;16.80;64.60;;;;;;4816751;29;20129;-74
2022/09/22 10:59:46;;;;;;;3.00;1.38;;;16.80;64.80;;;;;;4846496;29;20057;-74
2022/09/22 11:02:32;;;;;;;2.25;1.20;;;16.80;65.30;;;;;;4848301;29;20457;-76
2022/09/22 11:05:10;;;;;;;2.00;1.00;;;16.80;65.40;;;;;;4847878;29;20059;-75
2022/09/22 11:14:25;;;;;;;2.85;1.40;;;16.80;65.80;;;;;;4847319;29;20053;-74
2022/09/22 11:17:00;;;;;;;1.60;0.88;;;16.80;65.70;;;;;;4811031;29;20062;-77
2022/09/22 11:19:42;;;;;;;4.30;1.48;;;16.90;65.60;;;;;;4810192;29;20543;-78
2022/09/22 11:22:13;;;;;;;2.80;2.10;;;16.80;65.20;;;;;;4827192;29;20062;-78
2022/09/22 11:24:43;;;;;;;4.05;2.10;;;16.90;65.00;;;;;;4828874;29;20137;-78
2022/09/22 11:27:25;;;;;;;3.25;1.77;;;16.90;64.90;;;;;;4839976;29;20053;-76
2022/09/22 11:30:21;;;;;;;2.75;1.50;;;16.90;64.80;;;;;;4846673;29;20053;-77
2022/09/22 11:33:24;;;;;;;4.88;1.58;;;16.90;64.80;;;;;;4847061;29;20058;-78
2022/09/22 13:06:31;;;;;;;12.57;3.22;;;17.10;63.90;;;;;;4749245;30;20071;-78
2022/09/22 13:08:56;;;;;;;7.32;3.13;;;17.10;63.70;;;;;;4755307;30;20064;-76
2022/09/22 13:11:59;;;;;;;4.22;2.30;;;17.10;63.70;;;;;;4755291;30;20055;-76
2022/09/22 13:36:13;;;;;;;7.10;3.90;;;17.20;60.80;;;;;;5612175;24;20073;-76
2022/09/22 13:38:42;;;;;;;9.63;4.00;;;17.20;60.20;;;;;;4810675;29;20100;-78
2022/09/22 13:41:22;;;;;;;10.98;3.63;;;17.20;60.20;;;;;;4811468;29;20058;-76
2022/09/22 13:43:53;;;;;;;12.60;3.78;;;17.20;60.40;;;;;;4827242;29;20058;-75
2022/09/22 13:46:37;;;;;;;15.43;4.22;;;17.20;61.50;;;;;;4826431;29;20147;-77
2022/09/22 13:49:07;;;;;;;16.77;4.63;;;17.20;61.10;;;;;;4826582;29;20058;-77
2022/09/22 13:51:33;;;;;;;17.48;3.53;;;17.20;61.30;;;;;;4795481;29;20051;-78
2022/09/22 13:54:00;;;;;;;9.95;2.97;;;17.20;60.90;;;;;;4826458;29;20476;-76
2022/09/22 13:56:26;;;;;;;19.35;4.95;;;17.20;61.00;;;;;;4826524;29;20077;-78
2022/09/22 13:58:55;;;;;;;13.05;2.95;;;17.20;60.70;;;;;;4810142;29;20053;-77
2022/09/22 14:01:24;;;;;;;12.20;3.53;;;17.30;61.00;;;;;;4839039;29;20343;-77
2022/09/22 14:03:51;;;;;;;9.40;3.25;;;17.20;61.30;;;;;;4824158;29;20065;-76
2022/09/22 14:06:25;;;;;;;11.60;2.67;;;17.20;61.80;;;;;;4838931;29;20458;-78
2022/09/22 14:08:52;;;;;;;17.77;3.47;;;17.30;62.70;;;;;;4834603;29;20057;-78
2022/09/22 14:11:31;;;;;;;15.20;3.20;;;17.30;63.10;;;;;;4826509;29;20088;-78
2022/09/22 14:13:59;;;;;;;26.73;9.30;;;17.30;63.60;;;;;;4826218;29;20437;-77
2022/09/22 14:16:52;;;;;;;18.80;8.05;;;17.30;64.50;;;;;;4826254;29;20093;-78
2022/09/22 14:19:28;;;;;;;11.85;5.07;;;17.30;66.20;;;;;;4825551;29;20138;-77
2022/09/22 14:22:03;;;;;;;12.75;4.30;;;17.40;66.00;;;;;;4828822;29;20049;-78
2022/09/22 14:24:30;;;;;;;15.00;5.32;;;17.40;66.10;;;;;;4812179;29;20142;-76
2022/09/22 14:27:04;;;;;;;6.35;2.65;;;17.40;66.20;;;;;;4826106;29;20081;-74
2022/09/22 14:29:36;;;;;;;6.32;3.15;;;17.40;65.00;;;;;;4825261;29;20378;-76
2022/09/22 14:32:38;;;;;;;9.85;3.13;;;17.40;64.70;;;;;;4825974;29;20046;-81
2022/09/22 14:35:07;;;;;;;9.60;3.10;;;17.40;64.90;;;;;;4801922;29;20094;-74
2022/09/22 14:37:39;;;;;;;5.70;2.45;;;17.40;64.30;;;;;;4836894;29;20057;-77
2022/09/22 14:40:17;;;;;;;5.28;2.55;;;17.40;64.60;;;;;;4843840;29;20046;-77
2022/09/22 14:43:20;;;;;;;8.20;2.45;;;17.40;64.30;;;;;;4843503;29;20064;-78
2022/09/22 14:46:01;;;;;;;8.40;3.25;;;17.40;65.20;;;;;;4811409;29;20050;-78
2022/09/22 14:48:37;;;;;;;9.15;5.70;;;17.40;65.80;;;;;;4827625;29;20046;-73
2022/09/22 14:51:12;;;;;;;10.98;4.80;;;17.50;65.70;;;;;;4843768;29;20473;-76
2022/09/22 14:53:44;;;;;;;10.27;7.30;;;17.50;65.10;;;;;;4843910;29;20046;-75
2022/09/22 14:56:26;;;;;;;8.98;3.85;;;17.50;65.60;;;;;;4795294;29;20046;-75
2022/09/22 14:58:55;;;;;;;13.18;6.07;;;17.50;64.30;;;;;;4818499;29;20073;-75
2022/09/22 15:04:22;;;;;;;10.40;4.03;;;17.50;64.00;;;;;;4853169;29;20058;-75
2022/09/22 15:06:50;;;;;;;6.18;2.58;;;17.50;63.30;;;;;;4844636;29;20497;-76
2022/09/22 15:09:35;;;;;;;4.72;2.85;;;17.50;63.40;;;;;;4857246;29;20484;-78
2022/09/22 15:12:03;;;;;;;5.97;2.83;;;17.50;63.50;;;;;;4857413;29;20053;-75
2022/09/22 15:14:44;;;;;;;11.18;3.83;;;17.50;63.20;;;;;;4848140;29;20058;-76
2022/09/22 15:20:33;;;;;;;5.18;2.40;;;17.50;64.80;;;;;;4813845;29;20066;-74
2022/09/22 15:23:00;;;;;;;5.40;2.33;;;17.50;64.90;;;;;;4843843;29;20050;-76
2022/09/22 15:25:26;;;;;;;9.77;2.85;;;17.50;65.20;;;;;;4843628;29;20054;-75
2022/09/22 15:27:52;;;;;;;10.70;2.88;;;17.50;65.40;;;;;;4842084;29;20046;-76
2022/09/22 15:30:20;;;;;;;7.90;2.67;;;17.50;65.60;;;;;;4813578;29;20054;-77
2022/09/22 15:32:47;;;;;;;7.80;2.45;;;17.50;65.60;;;;;;4844642;29;20046;-75
2022/09/22 15:35:17;;;;;;;8.23;2.88;;;17.50;65.30;;;;;;4846861;29;20534;-74
2022/09/22 15:37:48;;;;;;;11.60;2.70;;;17.50;64.80;;;;;;4840154;29;20073;-76
2022/09/22 15:40:16;;;;;;;7.82;2.30;;;17.50;64.60;;;;;;4828539;29;20107;-75
2022/09/22 15:42:43;;;;;;;8.27;2.13;;;17.50;64.60;;;;;;4812393;29;20062;-76
2022/09/22 15:45:15;;;;;;;10.50;2.33;;;17.50;64.50;;;;;;4812698;29;20057;-75
2022/09/22 15:47:41;;;;;;;5.22;1.70;;;17.50;64.50;;;;;;4828888;29;20096;-76
2022/09/22 15:50:16;;;;;;;8.88;1.60;;;17.50;64.50;;;;;;4821781;29;20053;-73
2022/09/22 15:52:44;;;;;;;3.92;1.83;;;17.50;64.70;;;;;;4830667;29;20054;-75
2022/09/22 15:55:15;;;;;;;6.45;1.98;;;17.60;62.90;;;;;;4846703;29;20069;-76
2022/09/22 15:57:43;;;;;;;7.32;1.92;;;17.60;62.40;;;;;;4846751;29;20068;-75
2022/09/22 16:00:27;;;;;;;9.85;2.25;;;17.60;62.00;;;;;;4846749;29;20058;-74
2022/09/22 16:02:53;;;;;;;6.05;1.77;;;17.60;61.90;;;;;;4842234;29;20068;-76
2022/09/22 16:05:19;;;;;;;5.57;1.95;;;17.60;61.80;;;;;;4846265;29;20050;-75
2022/09/22 16:07:50;;;;;;;3.90;1.65;;;17.60;60.90;;;;;;4846332;29;20091;-74
2022/09/22 16:10:22;;;;;;;5.60;1.92;;;17.60;60.90;;;;;;4846717;29;20054;-76
2022/09/22 16:12:48;;;;;;;5.30;1.85;;;17.60;61.50;;;;;;4846209;29;20400;-73
2022/09/22 16:15:14;;;;;;;7.57;2.08;;;17.60;60.50;;;;;;4812493;29;20141;-74
2022/09/22 16:17:41;;;;;;;6.57;1.75;;;17.60;60.40;;;;;;4827259;29;20137;-76
2022/09/22 16:20:13;;;;;;;8.18;2.00;;;17.60;60.80;;;;;;4811833;29;20143;-76
2022/09/22 16:22:39;;;;;;;5.43;1.52;;;17.60;61.30;;;;;;4827365;29;20075;-75
2022/09/22 16:25:06;;;;;;;5.50;1.80;;;17.60;61.60;;;;;;4828387;29;20046;-75
2022/09/22 16:27:32;;;;;;;6.72;1.95;;;17.60;61.80;;;;;;4845896;29;20061;-75
2022/09/22 16:29:59;;;;;;;5.53;1.88;;;17.60;61.80;;;;;;4846069;29;20139;-74
2022/09/22 16:32:25;;;;;;;5.00;1.80;;;17.60;61.50;;;;;;4846063;29;20124;-75
2022/09/22 16:34:52;;;;;;;4.85;2.10;;;17.60;60.90;;;;;;4846077;29;20060;-74
2022/09/22 16:37:21;;;;;;;3.97;1.45;;;17.60;60.70;;;;;;4846396;29;20069;-77
2022/09/22 16:39:49;;;;;;;7.20;1.65;;;17.60;61.10;;;;;;4841615;29;20129;-75
2022/09/22 16:42:16;;;;;;;7.20;2.30;;;17.60;61.20;;;;;;4827571;29;20050;-74
2022/09/22 16:44:44;;;;;;;7.75;2.00;;;17.60;61.20;;;;;;4828015;29;20058;-75
2022/09/22 16:47:13;;;;;;;4.93;1.50;;;17.60;60.80;;;;;;4812478;29;20101;-75
2022/09/22 16:49:41;;;;;;;5.55;1.52;;;17.60;60.90;;;;;;4827311;29;20509;-76
2022/09/22 16:52:09;;;;;;;6.85;1.88;;;17.60;61.30;;;;;;4827440;29;20133;-75
2022/09/22 16:54:35;;;;;;;3.90;1.55;;;17.50;61.50;;;;;;4819148;29;20111;-75
2022/09/22 16:57:01;;;;;;;4.47;1.38;;;17.50;61.70;;;;;;4846125;29;20053;-75
2022/09/22 16:59:27;;;;;;;9.48;1.33;;;17.60;61.80;;;;;;4845687;29;20682;-74
2022/09/22 17:01:53;;;;;;;7.40;1.52;;;17.60;61.80;;;;;;4845864;29;20081;-75
2022/09/22 17:04:19;;;;;;;7.10;1.50;;;17.60;62.10;;;;;;4846158;29;20073;-73
2022/09/22 17:06:45;;;;;;;8.40;1.27;;;17.50;62.00;;;;;;4845624;29;20099;-74
2022/09/22 17:09:12;;;;;;;3.60;1.10;;;17.60;62.70;;;;;;4845871;29;20162;-76
2022/09/22 17:11:41;;;;;;;6.07;1.27;;;17.60;62.30;;;;;;4833314;29;20382;-75
2022/09/22 17:14:20;;;;;;;3.00;1.70;;;17.50;62.30;;;;;;4826911;29;20106;-75
2022/09/22 17:16:50;;;;;;;5.05;1.73;;;17.60;61.90;;;;;;4827351;29;20054;-74
2022/09/22 17:19:25;;;;;;;3.85;1.42;;;17.60;61.70;;;;;;4827363;29;20050;-75
2022/09/22 17:21:52;;;;;;;4.80;1.90;;;17.50;62.40;;;;;;4827461;29;20057;-74
2022/09/22 17:24:18;;;;;;;7.28;2.35;;;17.50;63.10;;;;;;4827017;29;20047;-75
2022/09/22 17:26:47;;;;;;;9.27;2.15;;;17.40;63.50;;;;;;4810783;29;20069;-75
2022/09/22 18:00:40;;;;;;;4.15;1.52;;;17.40;65.50;;;;;;4958098;24;20062;-75
2022/09/22 18:03:06;;;;;;;6.85;1.83;;;17.40;65.50;;;;;;4809664;29;20123;-74
2022/09/22 18:05:32;;;;;;;5.18;2.10;;;17.40;65.50;;;;;;4824284;29;20454;-74
2022/09/22 18:07:58;;;;;;;4.25;1.63;;;17.40;65.40;;;;;;4797547;29;20082;-75
2022/09/22 18:10:32;;;;;;;6.15;1.38;;;17.40;65.50;;;;;;4825610;29;20058;-75
2022/09/22 18:13:00;;;;;;;3.47;1.63;;;17.40;65.40;;;;;;4810111;29;20064;-73
2022/09/22 18:15:28;;;;;;;5.28;1.70;;;17.40;65.40;;;;;;4821536;29;20050;-76
2022/09/22 18:17:56;;;;;;;5.45;2.05;;;17.40;65.30;;;;;;4818857;29;20047;-74
2022/09/22 18:20:22;;;;;;;7.82;1.75;;;17.40;65.30;;;;;;4802379;29;20066;-77
2022/09/22 18:22:48;;;;;;;9.55;2.55;;;17.50;65.10;;;;;;4825929;29;20057;-78
2022/09/22 18:25:18;;;;;;;6.63;2.72;;;17.50;64.80;;;;;;4795375;29;20058;-79
2022/09/22 18:27:45;;;;;;;8.68;2.67;;;17.40;64.90;;;;;;4826147;29;20069;-77
2022/09/22 18:30:11;;;;;;;6.72;2.63;;;17.30;65.20;;;;;;4795243;29;20126;-79
2022/09/22 18:32:37;;;;;;;7.55;2.25;;;17.20;65.30;;;;;;4826453;29;20557;-78
2022/09/22 18:35:04;;;;;;;5.20;2.72;;;17.10;65.90;;;;;;4825940;29;20423;-79
2022/09/22 18:37:30;;;;;;;6.75;3.20;;;17.00;66.10;;;;;;4826172;29;20374;-77
2022/09/22 18:39:56;;;;;;;6.32;2.65;;;17.00;66.30;;;;;;4809790;29;20058;-77
2022/09/22 18:42:23;;;;;;;10.18;3.10;;;17.00;66.30;;;;;;4825146;29;20073;-76
2022/09/22 18:44:50;;;;;;;6.15;2.83;;;16.90;66.40;;;;;;4826030;29;20046;-76
2022/09/22 18:47:17;;;;;;;7.75;2.75;;;16.90;66.60;;;;;;4823323;29;20191;-76
2022/09/22 18:49:46;;;;;;;5.10;2.90;;;16.90;66.70;;;;;;4809487;29;20053;-78
2022/09/22 18:52:15;;;;;;;5.03;3.63;;;16.90;66.70;;;;;;4823922;29;20050;-77
2022/09/22 18:54:52;;;;;;;12.35;3.78;;;17.00;66.70;;;;;;4825707;29;20046;-78
2022/09/22 18:57:19;;;;;;;5.38;3.13;;;17.00;66.60;;;;;;4825488;29;20090;-77
2022/09/22 18:59:44;;;;;;;7.50;3.47;;;17.00;66.50;;;;;;4825948;29;20603;-76
2022/09/22 19:02:10;;;;;;;4.22;2.88;;;17.00;66.50;;;;;;4809232;29;20136;-77
2022/09/22 19:04:37;;;;;;;7.90;3.08;;;17.00;66.40;;;;;;4826477;29;20130;-78
2022/09/22 19:09:55;;;;;;;5.53;3.60;;;17.00;66.40;;;;;;4812622;29;20485;-80
2022/09/22 19:12:21;;;;;;;4.55;3.28;;;17.00;66.40;;;;;;4810698;29;20379;-79
2022/09/22 19:14:55;;;;;;;6.40;3.65;;;17.00;66.40;;;;;;4809910;29;20062;-75
2022/09/22 19:17:23;;;;;;;6.53;3.55;;;17.00;66.40;;;;;;4811092;29;20073;-75
2022/09/22 19:19:48;;;;;;;5.25;3.25;;;17.00;66.40;;;;;;4812046;29;20125;-76
2022/09/22 19:22:15;;;;;;;6.88;3.50;;;17.00;66.30;;;;;;4829018;29;20137;-77
2022/09/22 19:24:44;;;;;;;7.35;3.20;;;17.00;66.30;;;;;;4828952;29;20065;-77
2022/09/22 19:27:12;;;;;;;6.45;3.60;;;17.00;66.90;;;;;;4828546;29;20471;-78
2022/09/22 19:29:37;;;;;;;6.22;3.72;;;17.00;66.10;;;;;;4828736;29;20472;-77
2022/09/22 19:32:05;;;;;;;6.38;3.75;;;17.00;66.20;;;;;;4828874;29;20050;-76
2022/09/22 19:34:31;;;;;;;9.88;4.35;;;16.90;66.40;;;;;;4828812;29;20057;-77
2022/09/22 19:36:58;;;;;;;6.35;4.00;;;16.80;66.60;;;;;;4828851;29;20075;-77
2022/09/22 19:39:25;;;;;;;6.75;4.53;;;16.70;67.00;;;;;;4812808;29;20054;-76
2022/09/22 19:41:51;;;;;;;8.10;4.65;;;16.60;67.20;;;;;;4828790;29;20057;-76
2022/09/22 19:44:19;;;;;;;8.30;4.35;;;16.50;67.30;;;;;;4812997;29;20431;-77
2022/09/22 19:46:46;;;;;;;7.72;4.80;;;16.50;67.60;;;;;;4828653;29;20050;-76
2022/09/22 19:49:12;;;;;;;8.85;4.75;;;16.40;67.70;;;;;;4828624;29;20072;-76
2022/09/22 19:51:39;;;;;;;6.07;4.45;;;16.40;67.80;;;;;;4826796;29;20070;-76
2022/09/22 19:54:05;;;;;;;11.07;5.00;;;16.30;67.80;;;;;;4828465;29;20093;-76
2022/09/22 19:56:31;;;;;;;7.22;4.63;;;16.30;67.80;;;;;;4827883;29;20106;-78
2022/09/22 19:59:00;;;;;;;8.05;4.50;;;16.30;67.60;;;;;;4827742;29;20374;-77
2022/09/22 20:01:36;;;;;;;7.80;4.82;;;16.20;67.40;;;;;;4827967;29;20054;-78
2022/09/22 20:04:03;;;;;;;9.60;5.38;;;16.20;67.60;;;;;;4828583;29;20054;-77
2022/09/22 20:06:29;;;;;;;6.72;5.38;;;16.20;67.70;;;;;;4828247;29;20466;-76
2022/09/22 20:09:03;;;;;;;14.73;4.95;;;16.10;67.80;;;;;;4812084;29;20066;-78
2022/09/22 20:11:34;;;;;;;5.90;4.80;;;16.10;68.00;;;;;;4828546;29;20070;-78
2022/09/22 20:14:18;;;;;;;5.65;4.20;;;16.10;68.00;;;;;;4828275;29;20362;-77
2022/09/22 20:16:47;;;;;;;7.57;5.25;;;16.10;68.00;;;;;;4827383;29;20046;-76
2022/09/22 20:19:13;;;;;;;8.57;5.07;;;16.10;68.00;;;;;;4827549;29;20362;-76
2022/09/22 20:21:44;;;;;;;8.23;4.97;;;16.10;67.90;;;;;;4811844;29;20442;-80
2022/09/22 20:24:15;;;;;;;8.75;5.60;;;16.00;67.70;;;;;;4828085;29;20133;-75
2022/09/22 20:26:42;;;;;;;7.72;5.55;;;16.00;67.60;;;;;;4827865;29;20098;-77
2022/09/22 20:29:09;;;;;;;8.98;6.95;;;16.00;67.80;;;;;;4812026;29;20078;-76
2022/09/22 20:31:37;;;;;;;11.43;7.07;;;16.00;67.90;;;;;;4828066;29;20045;-78
2022/09/22 20:34:06;;;;;;;9.13;6.25;;;16.00;68.10;;;;;;4811867;29;20073;-77
2022/09/22 20:36:35;;;;;;;9.00;6.32;;;16.00;68.10;;;;;;4828450;29;20374;-78
2022/09/22 20:39:00;;;;;;;9.55;6.07;;;16.00;67.90;;;;;;4827955;29;20068;-78
2022/09/22 20:41:26;;;;;;;7.45;5.72;;;15.90;67.70;;;;;;4812127;29;20450;-77
2022/09/22 20:43:52;;;;;;;8.57;6.45;;;15.90;67.60;;;;;;4824407;29;20054;-79
2022/09/22 20:46:18;;;;;;;7.45;5.88;;;15.90;67.60;;;;;;4811529;29;20462;-78
2022/09/22 20:48:44;;;;;;;6.97;5.68;;;15.90;67.40;;;;;;4827743;29;20409;-76
2022/09/22 20:51:11;;;;;;;9.75;5.88;;;15.90;67.30;;;;;;4827332;29;20549;-77
2022/09/22 20:53:38;;;;;;;9.18;5.75;;;15.90;68.10;;;;;;4811817;29;20111;-76
2022/09/22 20:56:07;;;;;;;9.43;5.50;;;15.90;67.60;;;;;;4827893;29;20050;-75
2022/09/22 20:58:38;;;;;;;7.50;5.28;;;15.90;67.70;;;;;;4811603;29;20046;-75
